Welcome!

Visit our other weather sites:

Template documentation
and downloads

And another site



There are no active watches, warnings or advisories

Nearby METAR Reports

   
KAVP - Albrightsville, PA
Updated: Aug 19 2018 3:54 am
Overcast  
Overcast  
   Wind: Calm
Wind: Calm
Temperature: 66.2°F
Dew Point: 62.6°F
Humidity: 88%
Barometer: 29.93 inHg
Clouds: Overcast
Visibility: 10 mi
Cloud details: Overcast 671 m
KAVP 190854Z 00000KT 10SM OVC022 19/17 A2993 RMK AO2 SLP127 T01940172 51005
KIWA - Apache Junction, AZ
Updated: Aug 19 2018 3:55 am
Clear  
Clear  
   Wind: Calm
Wind: Calm
Temperature: 87.8°F
Heat Index: 89.6°F
Dew Point: 66.2°F
Humidity: 49%
Barometer: 29.88 inHg
Clouds: Clear
Visibility: 10 mi
Cloud details: Clear
KIWA 190855Z AUTO 00000KT 10SM CLR 31/19 A2988 RMK AO2 T03130194
KPKB - Blue Rock, OH
Updated: Aug 19 2018 4:10 am
Mist, Overcast  
Mist, Overcast  
   Wind: Calm
Wind: Calm
Temperature: 66.2°F
Dew Point: 64.4°F
Humidity: 94%
Barometer: 29.97 inHg
Clouds: Overcast
Visibility: 3 mi
Cloud details: Overcast 31 m
KPKB 190910Z AUTO 00000KT 3/4SM BR VV001 19/18 A2997 RMK AO2 T01940183
KHVN - Branford, CT
Updated: Aug 19 2018 3:53 am
Light Rain, Mist, Overcast  
Light Rain, Mist, Overcast  
   Wind: NNE 9.2 mph
Wind: NNE 9.2 mph
Temperature: 68°F
Dew Point: 64.4°F
Humidity: 88%
Barometer: 29.9 inHg
Clouds: Overcast
Visibility: 5 mi
Cloud details: Mostly Cloudy 457 m,
Overcast 853 m
KHVN 190853Z AUTO 03008KT 5SM -RA BR BKN015 OVC028 20/18 A2990 RMK AO2 RAB15 SLP126 P0012 60012 T02000183 53014
KPHX - Carefree, AZ
Updated: Aug 19 2018 3:51 am
Partly Cloudy  
Partly Cloudy  
   Wind: West 13.8 mph
Wind: West 13.8 mph
Temperature: 95°F
Dew Point: 62.6°F
Humidity: 34%
Barometer: 29.82 inHg
Clouds: Partly Cloudy
Visibility: 10 mi
Cloud details: Few Clouds 3962 m,
Partly Cloudy 5182 m
KPHX 190851Z 28012KT 10SM FEW130 SCT170 35/17 A2982 RMK AO2 SLP075 T03500167 56003
 

Script developed by  Saratoga-weather.org Adapted for the template by  Weerstation Leuven